sensor_id;sensor_type;location;lat;lon;timestamp;temperature;humidity
728;DHT22;347;48.780;9.158;2022-07-25T00:00:36;25.70;25.00
728;DHT22;347;48.780;9.158;2022-07-25T00:03:02;25.70;25.10
728;DHT22;347;48.780;9.158;2022-07-25T00:06:03;25.70;25.30
728;DHT22;347;48.780;9.158;2022-07-25T00:08:28;25.60;25.40
728;DHT22;347;48.780;9.158;2022-07-25T00:11:13;25.60;25.40
728;DHT22;347;48.780;9.158;2022-07-25T00:13:38;25.60;25.40
728;DHT22;347;48.780;9.158;2022-07-25T00:16:05;25.60;25.40
728;DHT22;347;48.780;9.158;2022-07-25T00:18:31;25.60;25.40
728;DHT22;347;48.780;9.158;2022-07-25T00:20:59;25.60;25.40
728;DHT22;347;48.780;9.158;2022-07-25T00:23:25;25.60;25.40
728;DHT22;347;48.780;9.158;2022-07-25T00:25:51;25.60;25.40
728;DHT22;347;48.780;9.158;2022-07-25T00:28:17;25.60;25.40
728;DHT22;347;48.780;9.158;2022-07-25T00:30:43;25.60;25.40
728;DHT22;347;48.780;9.158;2022-07-25T00:33:08;25.60;25.40
728;DHT22;347;48.780;9.158;2022-07-25T00:35:34;25.60;25.30
728;DHT22;347;48.780;9.158;2022-07-25T00:38:00;25.50;25.60
728;DHT22;347;48.780;9.158;2022-07-25T00:40:25;25.40;25.80
728;DHT22;347;48.780;9.158;2022-07-25T00:42:51;25.50;25.70
728;DHT22;347;48.780;9.158;2022-07-25T00:45:17;25.50;25.80
728;DHT22;347;48.780;9.158;2022-07-25T00:47:43;25.40;26.00
728;DHT22;347;48.780;9.158;2022-07-25T00:50:08;25.40;26.00
728;DHT22;347;48.780;9.158;2022-07-25T00:52:35;25.40;26.10
728;DHT22;347;48.780;9.158;2022-07-25T00:55:01;25.40;26.50
728;DHT22;347;48.780;9.158;2022-07-25T00:57:26;25.30;26.70
728;DHT22;347;48.780;9.158;2022-07-25T00:59:52;25.20;27.00
728;DHT22;347;48.780;9.158;2022-07-25T01:02:19;25.10;27.20
728;DHT22;347;48.780;9.158;2022-07-25T01:04:45;25.10;27.10
728;DHT22;347;48.780;9.158;2022-07-25T01:07:10;25.30;26.90
728;DHT22;347;48.780;9.158;2022-07-25T01:09:46;25.30;26.80
728;DHT22;347;48.780;9.158;2022-07-25T01:12:12;25.20;26.90
728;DHT22;347;48.780;9.158;2022-07-25T01:14:41;25.20;26.80
728;DHT22;347;48.780;9.158;2022-07-25T01:17:06;25.30;26.80
728;DHT22;347;48.780;9.158;2022-07-25T01:19:33;25.30;26.70
728;DHT22;347;48.780;9.158;2022-07-25T01:21:59;25.30;26.60
728;DHT22;347;48.780;9.158;2022-07-25T01:24:24;25.30;26.60
728;DHT22;347;48.780;9.158;2022-07-25T01:26:50;25.20;26.60
728;DHT22;347;48.780;9.158;2022-07-25T01:29:16;25.20;26.70
728;DHT22;347;48.780;9.158;2022-07-25T01:31:42;25.20;26.70
728;DHT22;347;48.780;9.158;2022-07-25T01:34:08;25.20;26.80
728;DHT22;347;48.780;9.158;2022-07-25T01:36:34;25.20;26.80
728;DHT22;347;48.780;9.158;2022-07-25T01:38:59;25.10;26.90
728;DHT22;347;48.780;9.158;2022-07-25T01:41:25;25.10;26.70
728;DHT22;347;48.780;9.158;2022-07-25T01:43:51;25.10;26.40
728;DHT22;347;48.780;9.158;2022-07-25T01:46:17;25.20;26.10
728;DHT22;347;48.780;9.158;2022-07-25T01:48:42;25.10;26.50
728;DHT22;347;48.780;9.158;2022-07-25T01:51:26;25.10;26.90
728;DHT22;347;48.780;9.158;2022-07-25T01:53:52;25.10;26.80
728;DHT22;347;48.780;9.158;2022-07-25T01:56:18;25.10;26.80
728;DHT22;347;48.780;9.158;2022-07-25T01:58:44;25.00;27.00
728;DHT22;347;48.780;9.158;2022-07-25T02:01:10;25.00;27.20
728;DHT22;347;48.780;9.158;2022-07-25T02:03:35;25.00;27.30
728;DHT22;347;48.780;9.158;2022-07-25T02:06:10;24.90;27.50
728;DHT22;347;48.780;9.158;2022-07-25T02:08:36;24.90;27.80
728;DHT22;347;48.780;9.158;2022-07-25T02:11:04;24.80;27.90
728;DHT22;347;48.780;9.158;2022-07-25T02:13:31;24.80;27.90
728;DHT22;347;48.780;9.158;2022-07-25T02:15:57;24.90;27.90
728;DHT22;347;48.780;9.158;2022-07-25T02:18:23;24.80;27.70
728;DHT22;347;48.780;9.158;2022-07-25T02:20:49;24.90;27.60
728;DHT22;347;48.780;9.158;2022-07-25T02:23:15;24.80;27.90
728;DHT22;347;48.780;9.158;2022-07-25T02:25:40;24.80;28.10
728;DHT22;347;48.780;9.158;2022-07-25T02:28:06;24.70;28.10
728;DHT22;347;48.780;9.158;2022-07-25T02:30:32;24.70;27.80
728;DHT22;347;48.780;9.158;2022-07-25T02:33:01;24.80;28.00
728;DHT22;347;48.780;9.158;2022-07-25T02:35:27;24.80;27.50
728;DHT22;347;48.780;9.158;2022-07-25T02:37:52;24.80;27.10
728;DHT22;347;48.780;9.158;2022-07-25T02:40:18;24.80;27.20
728;DHT22;347;48.780;9.158;2022-07-25T02:42:47;24.80;27.20
728;DHT22;347;48.780;9.158;2022-07-25T02:45:13;24.70;27.80
728;DHT22;347;48.780;9.158;2022-07-25T02:47:39;24.70;27.60
728;DHT22;347;48.780;9.158;2022-07-25T02:50:05;24.60;27.90
728;DHT22;347;48.780;9.158;2022-07-25T02:52:31;24.50;28.00
728;DHT22;347;48.780;9.158;2022-07-25T02:54:57;24.60;27.80
728;DHT22;347;48.780;9.158;2022-07-25T02:57:23;24.60;27.60
728;DHT22;347;48.780;9.158;2022-07-25T02:59:48;24.60;27.80
728;DHT22;347;48.780;9.158;2022-07-25T03:02:17;24.60;27.70
728;DHT22;347;48.780;9.158;2022-07-25T03:04:43;24.70;27.50
728;DHT22;347;48.780;9.158;2022-07-25T03:07:09;24.70;27.40
728;DHT22;347;48.780;9.158;2022-07-25T03:09:35;24.60;27.60
728;DHT22;347;48.780;9.158;2022-07-25T03:12:00;24.60;27.60
728;DHT22;347;48.780;9.158;2022-07-25T03:14:26;24.60;27.50
728;DHT22;347;48.780;9.158;2022-07-25T03:16:52;24.70;27.40
728;DHT22;347;48.780;9.158;2022-07-25T03:19:18;24.70;27.30
728;DHT22;347;48.780;9.158;2022-07-25T03:21:43;24.70;27.00
728;DHT22;347;48.780;9.158;2022-07-25T03:24:10;24.60;26.90
728;DHT22;347;48.780;9.158;2022-07-25T03:26:36;24.60;27.00
728;DHT22;347;48.780;9.158;2022-07-25T03:29:02;24.70;26.40
728;DHT22;347;48.780;9.158;2022-07-25T03:31:31;24.60;25.80
728;DHT22;347;48.780;9.158;2022-07-25T03:33:57;24.60;25.40
728;DHT22;347;48.780;9.158;2022-07-25T03:36:23;24.60;25.50
728;DHT22;347;48.780;9.158;2022-07-25T03:38:51;24.60;26.10
728;DHT22;347;48.780;9.158;2022-07-25T03:41:17;24.60;26.80
728;DHT22;347;48.780;9.158;2022-07-25T03:43:43;24.50;27.30
728;DHT22;347;48.780;9.158;2022-07-25T03:46:15;24.60;27.20
728;DHT22;347;48.780;9.158;2022-07-25T03:48:41;24.60;27.00
728;DHT22;347;48.780;9.158;2022-07-25T03:51:10;24.60;26.80
728;DHT22;347;48.780;9.158;2022-07-25T03:53:36;24.60;26.80
728;DHT22;347;48.780;9.158;2022-07-25T03:56:22;24.60;27.00
728;DHT22;347;48.780;9.158;2022-07-25T03:58:55;24.50;27.30
728;DHT22;347;48.780;9.158;2022-07-25T04:01:21;24.60;27.30
728;DHT22;347;48.780;9.158;2022-07-25T04:03:47;24.50;27.30
728;DHT22;347;48.780;9.158;2022-07-25T04:06:12;24.50;27.20
728;DHT22;347;48.780;9.158;2022-07-25T04:08:38;24.50;27.20
728;DHT22;347;48.780;9.158;2022-07-25T04:11:04;24.50;26.90
728;DHT22;347;48.780;9.158;2022-07-25T04:13:30;24.40;26.80
728;DHT22;347;48.780;9.158;2022-07-25T04:15:57;24.50;26.70
728;DHT22;347;48.780;9.158;2022-07-25T04:18:22;24.50;26.20
728;DHT22;347;48.780;9.158;2022-07-25T04:20:48;24.50;25.70
728;DHT22;347;48.780;9.158;2022-07-25T04:23:14;24.50;25.60
728;DHT22;347;48.780;9.158;2022-07-25T04:25:40;24.50;25.80
728;DHT22;347;48.780;9.158;2022-07-25T04:28:06;24.50;25.70
728;DHT22;347;48.780;9.158;2022-07-25T04:30:31;24.50;25.30
728;DHT22;347;48.780;9.158;2022-07-25T04:32:57;24.60;25.60
728;DHT22;347;48.780;9.158;2022-07-25T04:35:26;24.60;25.70
728;DHT22;347;48.780;9.158;2022-07-25T04:37:51;24.60;26.10
728;DHT22;347;48.780;9.158;2022-07-25T04:40:17;24.60;26.30
728;DHT22;347;48.780;9.158;2022-07-25T04:42:43;24.60;26.60
728;DHT22;347;48.780;9.158;2022-07-25T04:45:09;24.60;26.60
728;DHT22;347;48.780;9.158;2022-07-25T04:47:35;24.60;26.60
728;DHT22;347;48.780;9.158;2022-07-25T04:50:01;24.60;26.60
728;DHT22;347;48.780;9.158;2022-07-25T04:52:26;24.60;26.70
728;DHT22;347;48.780;9.158;2022-07-25T04:54:52;24.60;27.10
728;DHT22;347;48.780;9.158;2022-07-25T04:57:18;24.60;26.70
728;DHT22;347;48.780;9.158;2022-07-25T04:59:44;24.60;25.80
728;DHT22;347;48.780;9.158;2022-07-25T05:02:10;24.30;25.80
728;DHT22;347;48.780;9.158;2022-07-25T05:04:36;24.30;26.40
728;DHT22;347;48.780;9.158;2022-07-25T05:07:02;24.50;26.70
728;DHT22;347;48.780;9.158;2022-07-25T05:09:28;24.50;25.80
728;DHT22;347;48.780;9.158;2022-07-25T05:11:54;24.50;26.10
728;DHT22;347;48.780;9.158;2022-07-25T05:14:19;24.40;26.00
728;DHT22;347;48.780;9.158;2022-07-25T05:16:45;24.30;26.90
728;DHT22;347;48.780;9.158;2022-07-25T05:19:11;24.30;26.50
728;DHT22;347;48.780;9.158;2022-07-25T05:21:37;24.40;26.30
728;DHT22;347;48.780;9.158;2022-07-25T05:24:03;24.50;26.00
728;DHT22;347;48.780;9.158;2022-07-25T05:26:29;24.60;26.10
728;DHT22;347;48.780;9.158;2022-07-25T05:28:55;24.60;26.20
728;DHT22;347;48.780;9.158;2022-07-25T05:31:21;24.60;26.20
728;DHT22;347;48.780;9.158;2022-07-25T05:33:47;24.70;25.90
728;DHT22;347;48.780;9.158;2022-07-25T05:36:13;24.80;25.90
728;DHT22;347;48.780;9.158;2022-07-25T05:38:38;24.80;26.20
728;DHT22;347;48.780;9.158;2022-07-25T05:41:05;24.80;25.80
728;DHT22;347;48.780;9.158;2022-07-25T05:43:30;24.90;25.80
728;DHT22;347;48.780;9.158;2022-07-25T05:46:01;24.90;25.90
728;DHT22;347;48.780;9.158;2022-07-25T05:48:27;24.90;26.10
728;DHT22;347;48.780;9.158;2022-07-25T05:50:52;24.90;26.00
728;DHT22;347;48.780;9.158;2022-07-25T05:53:18;24.90;25.00
728;DHT22;347;48.780;9.158;2022-07-25T05:55:44;25.00;25.10
728;DHT22;347;48.780;9.158;2022-07-25T05:58:10;24.90;25.00
728;DHT22;347;48.780;9.158;2022-07-25T06:00:36;25.00;25.10
728;DHT22;347;48.780;9.158;2022-07-25T06:03:02;25.00;25.10
728;DHT22;347;48.780;9.158;2022-07-25T06:05:27;25.10;25.10
728;DHT22;347;48.780;9.158;2022-07-25T06:07:53;25.10;25.10
728;DHT22;347;48.780;9.158;2022-07-25T06:10:20;25.10;25.00
728;DHT22;347;48.780;9.158;2022-07-25T06:12:45;25.20;25.00
728;DHT22;347;48.780;9.158;2022-07-25T06:15:11;25.30;24.50
728;DHT22;347;48.780;9.158;2022-07-25T06:17:37;25.30;24.10
728;DHT22;347;48.780;9.158;2022-07-25T06:20:03;25.40;24.10
728;DHT22;347;48.780;9.158;2022-07-25T06:22:29;25.40;23.80
728;DHT22;347;48.780;9.158;2022-07-25T06:24:55;25.60;23.50
728;DHT22;347;48.780;9.158;2022-07-25T06:27:21;25.60;22.90
728;DHT22;347;48.780;9.158;2022-07-25T06:29:47;25.70;23.10
728;DHT22;347;48.780;9.158;2022-07-25T06:32:14;25.70;22.60
728;DHT22;347;48.780;9.158;2022-07-25T06:35:00;25.70;22.70
728;DHT22;347;48.780;9.158;2022-07-25T06:37:26;25.80;22.40
728;DHT22;347;48.780;9.158;2022-07-25T06:39:52;25.90;22.20
728;DHT22;347;48.780;9.158;2022-07-25T06:42:18;26.00;22.30
728;DHT22;347;48.780;9.158;2022-07-25T06:44:43;26.10;21.60
728;DHT22;347;48.780;9.158;2022-07-25T06:47:09;26.20;21.50
728;DHT22;347;48.780;9.158;2022-07-25T06:49:46;26.20;21.40
728;DHT22;347;48.780;9.158;2022-07-25T06:52:11;26.30;21.50
728;DHT22;347;48.780;9.158;2022-07-25T06:54:38;26.30;21.00
728;DHT22;347;48.780;9.158;2022-07-25T06:57:04;26.50;20.60
728;DHT22;347;48.780;9.158;2022-07-25T06:59:30;26.50;20.10
728;DHT22;347;48.780;9.158;2022-07-25T07:01:56;26.50;20.40
728;DHT22;347;48.780;9.158;2022-07-25T07:04:21;26.70;20.40
728;DHT22;347;48.780;9.158;2022-07-25T07:06:47;26.80;20.20
728;DHT22;347;48.780;9.158;2022-07-25T07:09:13;26.80;20.20
728;DHT22;347;48.780;9.158;2022-07-25T07:11:38;26.90;19.90
728;DHT22;347;48.780;9.158;2022-07-25T07:14:04;27.00;19.90
728;DHT22;347;48.780;9.158;2022-07-25T07:16:30;27.10;20.10
728;DHT22;347;48.780;9.158;2022-07-25T07:18:56;27.10;20.20
728;DHT22;347;48.780;9.158;2022-07-25T07:21:25;27.10;20.30
728;DHT22;347;48.780;9.158;2022-07-25T07:23:51;27.20;20.20
728;DHT22;347;48.780;9.158;2022-07-25T07:26:16;27.30;20.40
728;DHT22;347;48.780;9.158;2022-07-25T07:28:42;27.40;20.20
728;DHT22;347;48.780;9.158;2022-07-25T07:31:08;27.50;20.60
728;DHT22;347;48.780;9.158;2022-07-25T07:33:35;27.60;20.50
728;DHT22;347;48.780;9.158;2022-07-25T07:36:01;27.70;20.20
728;DHT22;347;48.780;9.158;2022-07-25T07:38:27;27.90;20.10
728;DHT22;347;48.780;9.158;2022-07-25T07:40:53;28.00;20.00
728;DHT22;347;48.780;9.158;2022-07-25T07:43:19;28.00;19.90
728;DHT22;347;48.780;9.158;2022-07-25T07:45:45;28.20;19.70
728;DHT22;347;48.780;9.158;2022-07-25T07:48:10;28.30;19.50
728;DHT22;347;48.780;9.158;2022-07-25T07:50:36;28.30;19.70
728;DHT22;347;48.780;9.158;2022-07-25T07:53:02;28.40;19.80
728;DHT22;347;48.780;9.158;2022-07-25T07:55:28;28.30;19.40
728;DHT22;347;48.780;9.158;2022-07-25T07:58:15;28.50;19.10
728;DHT22;347;48.780;9.158;2022-07-25T08:00:46;28.70;18.90
728;DHT22;347;48.780;9.158;2022-07-25T08:03:15;28.80;18.40
728;DHT22;347;48.780;9.158;2022-07-25T08:05:43;28.80;18.50
728;DHT22;347;48.780;9.158;2022-07-25T08:08:11;28.90;18.50
728;DHT22;347;48.780;9.158;2022-07-25T08:10:39;29.00;18.10
728;DHT22;347;48.780;9.158;2022-07-25T08:13:19;29.10;17.90
728;DHT22;347;48.780;9.158;2022-07-25T08:15:50;29.20;17.70
728;DHT22;347;48.780;9.158;2022-07-25T08:18:15;29.30;17.40
728;DHT22;347;48.780;9.158;2022-07-25T08:20:41;29.50;17.10
728;DHT22;347;48.780;9.158;2022-07-25T08:23:07;29.50;16.70
728;DHT22;347;48.780;9.158;2022-07-25T08:25:35;29.50;16.90
728;DHT22;347;48.780;9.158;2022-07-25T08:28:03;29.50;17.10
728;DHT22;347;48.780;9.158;2022-07-25T08:30:31;29.60;16.90
728;DHT22;347;48.780;9.158;2022-07-25T08:32:59;29.70;16.60
728;DHT22;347;48.780;9.158;2022-07-25T08:35:26;29.80;15.50
728;DHT22;347;48.780;9.158;2022-07-25T08:37:53;29.90;14.10
728;DHT22;347;48.780;9.158;2022-07-25T08:40:21;30.00;13.80
728;DHT22;347;48.780;9.158;2022-07-25T08:42:48;29.60;14.40
728;DHT22;347;48.780;9.158;2022-07-25T08:45:15;29.30;14.50
728;DHT22;347;48.780;9.158;2022-07-25T08:47:42;29.50;14.30
728;DHT22;347;48.780;9.158;2022-07-25T08:50:11;29.90;13.30
728;DHT22;347;48.780;9.158;2022-07-25T08:52:37;29.60;14.40
728;DHT22;347;48.780;9.158;2022-07-25T08:55:05;29.60;14.60
728;DHT22;347;48.780;9.158;2022-07-25T08:57:33;29.70;13.90
728;DHT22;347;48.780;9.158;2022-07-25T08:59:59;30.00;13.60
728;DHT22;347;48.780;9.158;2022-07-25T09:02:26;30.00;13.00
728;DHT22;347;48.780;9.158;2022-07-25T09:04:52;30.10;12.80
728;DHT22;347;48.780;9.158;2022-07-25T09:07:33;30.20;12.40
728;DHT22;347;48.780;9.158;2022-07-25T09:10:11;30.30;12.10
728;DHT22;347;48.780;9.158;2022-07-25T09:12:37;30.30;11.90
728;DHT22;347;48.780;9.158;2022-07-25T09:15:04;30.70;11.00
728;DHT22;347;48.780;9.158;2022-07-25T09:17:29;30.60;11.00
728;DHT22;347;48.780;9.158;2022-07-25T09:19:56;30.20;11.80
728;DHT22;347;48.780;9.158;2022-07-25T09:22:22;29.90;11.80
728;DHT22;347;48.780;9.158;2022-07-25T09:24:48;30.70;10.80
728;DHT22;347;48.780;9.158;2022-07-25T09:27:14;30.90;10.60
728;DHT22;347;48.780;9.158;2022-07-25T09:29:42;30.80;10.50
728;DHT22;347;48.780;9.158;2022-07-25T09:32:19;30.90;10.60
728;DHT22;347;48.780;9.158;2022-07-25T09:34:47;30.70;10.50
728;DHT22;347;48.780;9.158;2022-07-25T09:37:18;30.60;10.70
728;DHT22;347;48.780;9.158;2022-07-25T09:39:51;30.70;10.90
728;DHT22;347;48.780;9.158;2022-07-25T09:42:30;30.40;11.90
728;DHT22;347;48.780;9.158;2022-07-25T09:47:33;30.10;12.40
728;DHT22;347;48.780;9.158;2022-07-25T09:50:00;30.10;11.90
728;DHT22;347;48.780;9.158;2022-07-25T09:52:26;30.10;11.80
728;DHT22;347;48.780;9.158;2022-07-25T09:54:52;30.30;11.20
728;DHT22;347;48.780;9.158;2022-07-25T09:57:20;30.90;10.60
728;DHT22;347;48.780;9.158;2022-07-25T09:59:46;31.10;10.20
728;DHT22;347;48.780;9.158;2022-07-25T10:02:31;31.70;9.80
728;DHT22;347;48.780;9.158;2022-07-25T10:05:15;31.80;9.70
728;DHT22;347;48.780;9.158;2022-07-25T10:07:45;31.50;10.20
728;DHT22;347;48.780;9.158;2022-07-25T10:10:27;31.50;10.60
728;DHT22;347;48.780;9.158;2022-07-25T10:13:08;31.50;10.50
728;DHT22;347;48.780;9.158;2022-07-25T10:15:50;31.60;10.30
728;DHT22;347;48.780;9.158;2022-07-25T10:18:19;31.60;9.90
728;DHT22;347;48.780;9.158;2022-07-25T10:20:46;31.70;9.50
728;DHT22;347;48.780;9.158;2022-07-25T10:23:25;31.70;9.70
728;DHT22;347;48.780;9.158;2022-07-25T10:26:02;31.90;9.20
728;DHT22;347;48.780;9.158;2022-07-25T10:28:40;32.40;8.10
728;DHT22;347;48.780;9.158;2022-07-25T10:31:20;32.50;8.00
728;DHT22;347;48.780;9.158;2022-07-25T10:33:55;32.60;7.70
728;DHT22;347;48.780;9.158;2022-07-25T10:36:22;32.60;7.60
728;DHT22;347;48.780;9.158;2022-07-25T10:38:51;32.40;7.80
728;DHT22;347;48.780;9.158;2022-07-25T10:41:17;32.30;7.90
728;DHT22;347;48.780;9.158;2022-07-25T10:43:44;32.40;7.60
728;DHT22;347;48.780;9.158;2022-07-25T10:46:13;32.30;7.50
728;DHT22;347;48.780;9.158;2022-07-25T10:48:57;32.50;7.60
728;DHT22;347;48.780;9.158;2022-07-25T10:51:30;32.70;6.90
728;DHT22;347;48.780;9.158;2022-07-25T10:53:59;32.80;7.30
728;DHT22;347;48.780;9.158;2022-07-25T10:56:35;32.60;7.80
728;DHT22;347;48.780;9.158;2022-07-25T10:59:11;33.00;6.70
728;DHT22;347;48.780;9.158;2022-07-25T11:01:41;33.00;7.00
728;DHT22;347;48.780;9.158;2022-07-25T11:04:18;33.10;6.60
728;DHT22;347;48.780;9.158;2022-07-25T11:06:44;33.40;5.90
728;DHT22;347;48.780;9.158;2022-07-25T11:09:18;33.60;5.70
728;DHT22;347;48.780;9.158;2022-07-25T11:11:52;33.30;6.00
728;DHT22;347;48.780;9.158;2022-07-25T11:14:29;32.90;6.70
728;DHT22;347;48.780;9.158;2022-07-25T11:16:57;32.70;6.90
728;DHT22;347;48.780;9.158;2022-07-25T11:19:25;32.40;6.80
728;DHT22;347;48.780;9.158;2022-07-25T11:22:00;32.10;7.40
728;DHT22;347;48.780;9.158;2022-07-25T11:24:44;32.00;7.60
728;DHT22;347;48.780;9.158;2022-07-25T11:27:21;31.90;7.70
728;DHT22;347;48.780;9.158;2022-07-25T11:29:47;31.80;7.80
728;DHT22;347;48.780;9.158;2022-07-25T11:32:13;31.90;6.50
728;DHT22;347;48.780;9.158;2022-07-25T11:34:48;31.80;7.10
728;DHT22;347;48.780;9.158;2022-07-25T11:37:16;31.90;6.50
728;DHT22;347;48.780;9.158;2022-07-25T11:39:44;32.10;6.80
728;DHT22;347;48.780;9.158;2022-07-25T11:42:15;31.90;6.50
728;DHT22;347;48.780;9.158;2022-07-25T11:44:51;31.70;6.70
728;DHT22;347;48.780;9.158;2022-07-25T11:49:52;32.20;6.00
728;DHT22;347;48.780;9.158;2022-07-25T11:52:35;31.90;6.50
728;DHT22;347;48.780;9.158;2022-07-25T11:57:30;31.60;6.80
728;DHT22;347;48.780;9.158;2022-07-25T11:59:58;31.60;7.10
728;DHT22;347;48.780;9.158;2022-07-25T12:02:33;31.60;7.50
728;DHT22;347;48.780;9.158;2022-07-25T12:05:06;31.60;7.50
728;DHT22;347;48.780;9.158;2022-07-25T12:07:53;32.10;6.60
728;DHT22;347;48.780;9.158;2022-07-25T12:10:43;31.90;7.70
728;DHT22;347;48.780;9.158;2022-07-25T12:13:31;32.70;4.90
728;DHT22;347;48.780;9.158;2022-07-25T12:15:58;33.30;1.40
728;DHT22;347;48.780;9.158;2022-07-25T12:18:25;33.50;1.40
728;DHT22;347;48.780;9.158;2022-07-25T12:20:57;33.60;1.00
728;DHT22;347;48.780;9.158;2022-07-25T12:23:28;33.60;1.20
728;DHT22;347;48.780;9.158;2022-07-25T12:25:59;33.20;3.80
728;DHT22;347;48.780;9.158;2022-07-25T12:28:25;32.90;4.80
728;DHT22;347;48.780;9.158;2022-07-25T12:30:52;32.70;5.30
728;DHT22;347;48.780;9.158;2022-07-25T12:33:18;32.50;5.70
728;DHT22;347;48.780;9.158;2022-07-25T12:35:47;32.40;6.00
728;DHT22;347;48.780;9.158;2022-07-25T12:38:18;32.20;6.30
728;DHT22;347;48.780;9.158;2022-07-25T12:40:47;32.10;6.60
728;DHT22;347;48.780;9.158;2022-07-25T12:43:13;31.90;6.50
728;DHT22;347;48.780;9.158;2022-07-25T12:45:39;31.90;6.90
728;DHT22;347;48.780;9.158;2022-07-25T12:48:08;31.80;7.40
728;DHT22;347;48.780;9.158;2022-07-25T12:50:41;31.80;7.40
728;DHT22;347;48.780;9.158;2022-07-25T12:53:11;31.80;7.50
728;DHT22;347;48.780;9.158;2022-07-25T12:55:42;31.80;7.60
728;DHT22;347;48.780;9.158;2022-07-25T12:58:08;31.60;7.70
728;DHT22;347;48.780;9.158;2022-07-25T13:00:39;31.70;7.90
728;DHT22;347;48.780;9.158;2022-07-25T13:03:08;31.60;8.00
728;DHT22;347;48.780;9.158;2022-07-25T13:05:34;31.50;8.20
728;DHT22;347;48.780;9.158;2022-07-25T13:08:08;31.50;8.10
728;DHT22;347;48.780;9.158;2022-07-25T13:10:37;31.50;8.40
728;DHT22;347;48.780;9.158;2022-07-25T13:13:06;31.80;8.00
728;DHT22;347;48.780;9.158;2022-07-25T13:15:32;31.80;8.10
728;DHT22;347;48.780;9.158;2022-07-25T13:18:02;32.00;7.80
728;DHT22;347;48.780;9.158;2022-07-25T13:20:28;32.00;7.90
728;DHT22;347;48.780;9.158;2022-07-25T13:22:55;31.80;7.90
728;DHT22;347;48.780;9.158;2022-07-25T13:25:21;31.80;7.90
728;DHT22;347;48.780;9.158;2022-07-25T13:27:47;31.80;8.10
728;DHT22;347;48.780;9.158;2022-07-25T13:30:14;31.70;7.60
728;DHT22;347;48.780;9.158;2022-07-25T13:32:40;32.70;5.40
728;DHT22;347;48.780;9.158;2022-07-25T13:35:06;32.50;5.90
728;DHT22;347;48.780;9.158;2022-07-25T13:37:32;33.00;4.30
728;DHT22;347;48.780;9.158;2022-07-25T13:40:09;33.50;2.70
728;DHT22;347;48.780;9.158;2022-07-25T13:42:38;33.70;2.80
728;DHT22;347;48.780;9.158;2022-07-25T13:45:07;33.70;2.80
728;DHT22;347;48.780;9.158;2022-07-25T13:47:33;33.70;2.80
728;DHT22;347;48.780;9.158;2022-07-25T13:50:01;33.70;2.80
728;DHT22;347;48.780;9.158;2022-07-25T13:52:27;33.70;2.60
728;DHT22;347;48.780;9.158;2022-07-25T13:54:55;34.00;2.10
728;DHT22;347;48.780;9.158;2022-07-25T13:57:21;33.80;2.00
728;DHT22;347;48.780;9.158;2022-07-25T13:59:47;33.40;2.70
728;DHT22;347;48.780;9.158;2022-07-25T14:02:13;33.30;2.70
728;DHT22;347;48.780;9.158;2022-07-25T14:04:39;33.20;2.60
728;DHT22;347;48.780;9.158;2022-07-25T14:07:05;33.20;2.60
728;DHT22;347;48.780;9.158;2022-07-25T14:09:31;33.10;7.20
728;DHT22;347;48.780;9.158;2022-07-25T14:11:57;33.20;5.60
728;DHT22;347;48.780;9.158;2022-07-25T14:14:23;33.00;4.60
728;DHT22;347;48.780;9.158;2022-07-25T14:16:49;33.10;4.20
728;DHT22;347;48.780;9.158;2022-07-25T14:19:15;32.90;4.10
728;DHT22;347;48.780;9.158;2022-07-25T14:21:41;33.10;4.00
728;DHT22;347;48.780;9.158;2022-07-25T14:24:10;33.00;4.40
728;DHT22;347;48.780;9.158;2022-07-25T14:26:39;32.70;5.00
728;DHT22;347;48.780;9.158;2022-07-25T14:29:04;32.50;5.90
728;DHT22;347;48.780;9.158;2022-07-25T14:31:37;32.20;6.70
728;DHT22;347;48.780;9.158;2022-07-25T14:34:09;32.20;7.10
728;DHT22;347;48.780;9.158;2022-07-25T14:36:40;32.00;7.80
728;DHT22;347;48.780;9.158;2022-07-25T14:39:15;31.90;7.90
728;DHT22;347;48.780;9.158;2022-07-25T14:41:41;32.10;7.60
728;DHT22;347;48.780;9.158;2022-07-25T14:44:07;32.10;7.80
728;DHT22;347;48.780;9.158;2022-07-25T14:46:34;32.10;7.40
728;DHT22;347;48.780;9.158;2022-07-25T14:49:00;32.30;7.70
728;DHT22;347;48.780;9.158;2022-07-25T14:51:35;32.10;8.00
728;DHT22;347;48.780;9.158;2022-07-25T14:54:02;32.10;7.30
728;DHT22;347;48.780;9.158;2022-07-25T14:56:34;32.80;5.90
728;DHT22;347;48.780;9.158;2022-07-25T14:59:00;33.10;5.80
728;DHT22;347;48.780;9.158;2022-07-25T15:01:26;33.10;6.30
728;DHT22;347;48.780;9.158;2022-07-25T15:03:55;33.10;5.70
728;DHT22;347;48.780;9.158;2022-07-25T15:06:21;33.00;5.60
728;DHT22;347;48.780;9.158;2022-07-25T15:08:47;33.00;5.70
728;DHT22;347;48.780;9.158;2022-07-25T15:11:16;32.90;6.10
728;DHT22;347;48.780;9.158;2022-07-25T15:13:42;32.70;6.30
728;DHT22;347;48.780;9.158;2022-07-25T15:16:12;32.60;7.20
728;DHT22;347;48.780;9.158;2022-07-25T15:18:41;32.30;6.80
728;DHT22;347;48.780;9.158;2022-07-25T15:21:20;32.40;6.80
728;DHT22;347;48.780;9.158;2022-07-25T15:23:45;32.20;7.10
728;DHT22;347;48.780;9.158;2022-07-25T15:26:14;32.00;7.60
728;DHT22;347;48.780;9.158;2022-07-25T15:28:40;31.90;7.90
728;DHT22;347;48.780;9.158;2022-07-25T15:31:06;31.90;7.80
728;DHT22;347;48.780;9.158;2022-07-25T15:33:42;31.90;9.50
728;DHT22;347;48.780;9.158;2022-07-25T15:36:08;31.60;10.80
728;DHT22;347;48.780;9.158;2022-07-25T15:38:37;31.40;11.30
728;DHT22;347;48.780;9.158;2022-07-25T15:41:05;31.10;12.10
728;DHT22;347;48.780;9.158;2022-07-25T15:43:34;31.00;12.50
728;DHT22;347;48.780;9.158;2022-07-25T15:46:00;31.00;12.40
728;DHT22;347;48.780;9.158;2022-07-25T15:48:34;30.80;12.70
728;DHT22;347;48.780;9.158;2022-07-25T15:51:00;30.70;12.90
728;DHT22;347;48.780;9.158;2022-07-25T15:53:31;30.60;13.10
728;DHT22;347;48.780;9.158;2022-07-25T15:56:06;30.50;13.10
728;DHT22;347;48.780;9.158;2022-07-25T15:58:32;30.40;13.40
728;DHT22;347;48.780;9.158;2022-07-25T16:01:05;30.30;13.50
728;DHT22;347;48.780;9.158;2022-07-25T16:03:44;30.30;13.70
728;DHT22;347;48.780;9.158;2022-07-25T16:06:12;30.20;13.80
728;DHT22;347;48.780;9.158;2022-07-25T16:08:47;30.20;13.90
728;DHT22;347;48.780;9.158;2022-07-25T16:11:26;30.30;14.00
728;DHT22;347;48.780;9.158;2022-07-25T16:13:52;30.40;13.70
728;DHT22;347;48.780;9.158;2022-07-25T16:16:20;30.30;13.40
728;DHT22;347;48.780;9.158;2022-07-25T16:18:50;30.30;13.70
728;DHT22;347;48.780;9.158;2022-07-25T16:21:16;30.30;13.40
728;DHT22;347;48.780;9.158;2022-07-25T16:23:48;30.50;12.50
728;DHT22;347;48.780;9.158;2022-07-25T16:26:19;30.70;11.60
728;DHT22;347;48.780;9.158;2022-07-25T16:28:45;30.60;11.40
728;DHT22;347;48.780;9.158;2022-07-25T16:31:13;30.70;10.50
728;DHT22;347;48.780;9.158;2022-07-25T16:33:39;30.70;10.50
728;DHT22;347;48.780;9.158;2022-07-25T16:36:44;30.70;10.00
728;DHT22;347;48.780;9.158;2022-07-25T16:39:08;30.70;10.20
728;DHT22;347;48.780;9.158;2022-07-25T16:41:43;30.60;10.30
728;DHT22;347;48.780;9.158;2022-07-25T16:50:22;30.60;10.40
728;DHT22;347;48.780;9.158;2022-07-25T16:52:50;30.60;10.40
728;DHT22;347;48.780;9.158;2022-07-25T16:55:19;30.60;10.40
728;DHT22;347;48.780;9.158;2022-07-25T17:00:39;30.80;10.40
728;DHT22;347;48.780;9.158;2022-07-25T17:03:04;31.00;10.00